createdAt,value
2022-09-23T00:00:43.479Z,12.51
2022-09-23T00:03:45.555Z,12.26
2022-09-23T00:06:47.442Z,12.25
2022-09-23T00:09:50.384Z,12.46
2022-09-23T00:12:52.248Z,11.78
2022-09-23T00:15:54.094Z,11.31
2022-09-23T00:18:55.921Z,11.16
2022-09-23T00:21:57.706Z,11.61
2022-09-23T00:24:59.545Z,11.54
2022-09-23T00:28:01.836Z,10.94
2022-09-23T00:31:08.055Z,10.70
2022-09-23T00:34:10.438Z,10.78
2022-09-23T00:37:12.781Z,10.68
2022-09-23T00:40:14.719Z,10.69
2022-09-23T00:43:17.287Z,11.06
2022-09-23T00:46:38.964Z,10.66
2022-09-23T00:49:40.779Z,10.83
2022-09-23T00:52:42.581Z,10.60
2022-09-23T00:55:54.972Z,10.37
2022-09-23T00:58:56.792Z,10.80
2022-09-23T01:01:59.234Z,10.91
2022-09-23T01:05:01.719Z,10.80
2022-09-23T01:08:03.480Z,10.38
2022-09-23T01:11:09.398Z,11.15
2022-09-23T01:14:20.725Z,11.02
2022-09-23T01:17:22.458Z,10.27
2022-09-23T01:20:24.783Z,10.00
2022-09-23T01:23:26.514Z,9.93
2022-09-23T01:26:47.118Z,10.57
2022-09-23T01:29:48.936Z,10.32
2022-09-23T01:33:23.072Z,10.25
2022-09-23T01:36:27.706Z,9.82
2022-09-23T01:39:39.298Z,9.78
2022-09-23T01:42:46.403Z,9.96
2022-09-23T01:45:48.381Z,9.58
2022-09-23T01:48:52.024Z,10.43
2022-09-23T01:52:16.070Z,11.08
2022-09-23T01:55:19.207Z,10.32
2022-09-23T01:58:28.584Z,9.57
2022-09-23T02:01:36.265Z,9.90
2022-09-23T02:04:40.801Z,10.58
2022-09-23T02:07:44.114Z,10.35
2022-09-23T02:10:49.677Z,9.64
2022-09-23T02:14:11.518Z,10.11
2022-09-23T02:17:14.182Z,10.81
2022-09-23T02:20:16.333Z,10.63
2022-09-23T02:23:23.213Z,9.64
2022-09-23T02:26:29.649Z,10.10
2022-09-23T02:29:50.246Z,9.74
2022-09-23T02:32:54.271Z,10.01
2022-09-23T02:35:58.654Z,10.17
2022-09-23T02:39:01.863Z,10.23
2022-09-23T02:42:07.779Z,10.68
2022-09-23T02:45:09.564Z,10.38
2022-09-23T02:48:16.740Z,10.64
2022-09-23T02:51:18.950Z,10.98
2022-09-23T02:54:22.407Z,10.20
2022-09-23T02:57:24.203Z,10.60
2022-09-23T03:00:26.073Z,10.56
2022-09-23T03:03:46.725Z,10.24
2022-09-23T03:07:02.074Z,9.81
2022-09-23T03:10:06.113Z,9.95
2022-09-23T03:13:07.854Z,9.63
2022-09-23T03:16:16.231Z,9.98
2022-09-23T03:19:18.021Z,9.22
2022-09-23T03:22:46.116Z,9.63
2022-09-23T03:25:48.422Z,8.86
2022-09-23T03:28:50.416Z,9.57
2022-09-23T03:31:52.977Z,10.10
2022-09-23T03:34:55.433Z,9.73
2022-09-23T03:37:58.866Z,9.96
2022-09-23T03:41:02.919Z,10.24
2022-09-23T03:44:04.702Z,10.62
2022-09-23T03:47:06.617Z,10.23
2022-09-23T03:50:08.589Z,9.84
2022-09-23T03:53:13.842Z,9.36
2022-09-23T03:56:15.724Z,10.01
2022-09-23T03:59:17.517Z,10.72
2022-09-23T04:02:19.884Z,10.78
2022-09-23T04:05:21.852Z,10.22
2022-09-23T04:08:23.718Z,9.99
2022-09-23T04:11:25.537Z,10.21
2022-09-23T04:14:27.358Z,9.54
2022-09-23T04:17:29.158Z,9.29
2022-09-23T04:20:30.971Z,9.84
2022-09-23T04:23:32.877Z,9.67
2022-09-23T04:26:34.757Z,9.54
2022-09-23T04:29:36.567Z,9.64
2022-09-23T04:32:38.356Z,9.38
2022-09-23T04:35:40.635Z,10.48
2022-09-23T04:38:46.564Z,10.83
2022-09-23T04:41:48.361Z,10.67
2022-09-23T04:44:50.174Z,10.72
2022-09-23T04:47:52.104Z,10.69
2022-09-23T04:50:53.933Z,10.95
2022-09-23T04:53:55.755Z,10.94
2022-09-23T04:56:57.591Z,10.91
2022-09-23T04:59:59.748Z,9.86
2022-09-23T05:03:01.554Z,10.05
2022-09-23T05:06:03.490Z,10.49
2022-09-23T05:09:07.529Z,10.13
2022-09-23T05:12:09.381Z,10.71
2022-09-23T05:15:13.096Z,10.94
2022-09-23T05:18:17.912Z,11.23
2022-09-23T05:21:23.484Z,10.41
2022-09-23T05:24:25.409Z,10.81
2022-09-23T05:27:27.292Z,10.90
2022-09-23T05:30:29.086Z,11.70
2022-09-23T05:33:31.529Z,13.04
2022-09-23T05:36:37.973Z,13.44
2022-09-23T05:39:40.362Z,14.33
2022-09-23T05:42:42.312Z,13.79
2022-09-23T05:45:44.156Z,13.93
2022-09-23T05:48:49.493Z,15.54
2022-09-23T05:51:51.325Z,14.93
2022-09-23T05:54:54.892Z,15.51
2022-09-23T05:57:56.788Z,13.97
2022-09-23T06:00:58.877Z,14.74
2022-09-23T06:04:01.194Z,15.08
2022-09-23T06:07:03.677Z,16.45
2022-09-23T06:10:06.759Z,14.93
2022-09-23T06:13:08.898Z,16.79
2022-09-23T06:16:11.803Z,17.58
2022-09-23T06:19:13.679Z,17.04
2022-09-23T06:22:17.955Z,17.22
2022-09-23T06:25:20.828Z,16.87
2022-09-23T06:28:22.734Z,16.92
2022-09-23T06:31:24.684Z,16.79
2022-09-23T06:34:26.573Z,16.07
2022-09-23T06:37:28.545Z,16.33
2022-09-23T06:40:31.409Z,16.36
2022-09-23T06:43:33.385Z,16.35
2022-09-23T06:46:37.004Z,18.58
2022-09-23T06:49:38.906Z,20.03
2022-09-23T06:52:41.273Z,17.37
2022-09-23T06:55:43.291Z,18.75
2022-09-23T06:58:45.109Z,19.31
2022-09-23T07:01:48.404Z,18.31
2022-09-23T07:04:51.328Z,18.71
2022-09-23T07:07:53.439Z,19.67
2022-09-23T07:10:55.913Z,18.57
2022-09-23T07:13:57.818Z,18.64
2022-09-23T07:17:00.018Z,19.38
2022-09-23T07:20:02.180Z,18.37
2022-09-23T07:23:04.197Z,21.66
2022-09-23T07:26:07.878Z,20.71
2022-09-23T07:29:11.992Z,18.92
2022-09-23T07:32:16.092Z,20.40
2022-09-23T07:35:18.179Z,20.79
2022-09-23T07:38:20.203Z,19.67
2022-09-23T07:41:24.761Z,19.85
2022-09-23T07:44:27.062Z,20.98
2022-09-23T07:47:29.093Z,20.62
2022-09-23T07:50:31.315Z,22.01
2022-09-23T07:53:33.446Z,22.35
2022-09-23T07:56:35.995Z,21.83
2022-09-23T07:59:38.425Z,18.06
2022-09-23T08:02:40.961Z,17.47
2022-09-23T08:05:42.979Z,17.65
2022-09-23T08:08:45.619Z,16.93
2022-09-23T08:11:49.415Z,16.73
2022-09-23T08:14:51.485Z,16.76
2022-09-23T08:17:53.274Z,16.50
2022-09-23T08:20:55.262Z,15.88
2022-09-23T08:23:57.081Z,15.99
2022-09-23T08:26:59.093Z,16.37
2022-09-23T08:30:00.897Z,16.21
2022-09-23T08:33:02.890Z,16.39
2022-09-23T08:36:04.868Z,16.58
2022-09-23T08:39:06.841Z,16.21
2022-09-23T08:42:16.998Z,15.73
2022-09-23T08:45:24.886Z,16.07
2022-09-23T08:48:33.244Z,16.41
2022-09-23T08:51:44.338Z,16.97
2022-09-23T08:54:46.241Z,16.10
2022-09-23T08:58:23.573Z,16.70
2022-09-23T09:01:43.815Z,16.75
2022-09-23T09:04:50.674Z,16.74
2022-09-23T09:07:52.503Z,16.91
2022-09-23T09:10:54.574Z,18.15
2022-09-23T09:14:19.569Z,21.15
2022-09-23T09:17:33.028Z,22.26
2022-09-23T09:20:49.596Z,22.97
2022-09-23T09:23:55.945Z,21.51
2022-09-23T09:26:57.891Z,23.47
2022-09-23T09:30:01.301Z,23.12
2022-09-23T09:33:07.627Z,26.03
2022-09-23T09:36:09.691Z,26.14
2022-09-23T09:39:12.208Z,23.37
2022-09-23T09:42:17.415Z,25.55
2022-09-23T09:45:20.008Z,26.90
2022-09-23T09:48:23.692Z,24.04
2022-09-23T09:51:27.819Z,22.92
2022-09-23T09:54:31.423Z,26.09
2022-09-23T09:57:39.593Z,26.08
2022-09-23T10:00:43.213Z,28.09
2022-09-23T10:03:45.015Z,26.66
2022-09-23T10:07:07.203Z,26.58
2022-09-23T10:10:32.571Z,25.63
2022-09-23T10:13:35.156Z,28.85
2022-09-23T10:16:37.246Z,27.22
2022-09-23T10:19:39.176Z,24.52
2022-09-23T10:22:42.928Z,24.38
2022-09-23T10:25:45.262Z,27.48
2022-09-23T10:28:47.138Z,28.63
2022-09-23T10:31:52.808Z,24.79
2022-09-23T10:35:14.957Z,27.21
2022-09-23T10:38:16.923Z,25.24
2022-09-23T10:41:45.115Z,25.21
2022-09-23T10:45:11.935Z,23.36
2022-09-23T10:48:19.850Z,22.85
2022-09-23T10:51:33.674Z,21.16
2022-09-23T10:54:50.932Z,19.65
2022-09-23T10:58:11.654Z,19.57
2022-09-23T11:01:16.552Z,19.60
2022-09-23T11:04:18.773Z,20.00
2022-09-23T11:07:37.934Z,18.86
2022-09-23T11:10:49.787Z,20.03
2022-09-23T11:14:16.957Z,21.92
2022-09-23T11:17:34.777Z,22.14
2022-09-23T11:21:00.037Z,22.11
2022-09-23T11:24:20.851Z,22.23
2022-09-23T11:27:27.562Z,21.41
2022-09-23T11:30:49.201Z,20.68
2022-09-23T11:34:03.761Z,21.58
2022-09-23T11:37:05.856Z,21.71
2022-09-23T11:40:13.970Z,21.08
2022-09-23T11:43:19.874Z,21.30
2022-09-23T11:46:48.086Z,21.28
2022-09-23T11:49:49.865Z,21.78
2022-09-23T11:52:53.241Z,20.95
2022-09-23T11:56:24.872Z,20.46
2022-09-23T11:59:40.682Z,20.78
2022-09-23T12:03:00.314Z,21.81
2022-09-23T12:06:12.636Z,22.08
2022-09-23T12:09:15.897Z,22.03
2022-09-23T12:12:21.967Z,20.93
2022-09-23T12:15:45.890Z,20.43
2022-09-23T12:18:54.249Z,20.94
2022-09-23T12:22:08.369Z,21.71
2022-09-23T12:25:28.809Z,22.02
2022-09-23T12:28:31.316Z,22.67
2022-09-23T12:31:37.605Z,21.97
2022-09-23T12:34:48.934Z,21.02
2022-09-23T12:37:50.975Z,21.18
2022-09-23T12:40:53.763Z,23.15
2022-09-23T12:44:00.470Z,22.32
2022-09-23T12:47:14.257Z,22.21
2022-09-23T12:50:35.007Z,23.34
2022-09-23T12:53:51.214Z,22.55
2022-09-23T12:56:56.090Z,20.83
2022-09-23T12:59:59.298Z,23.96
2022-09-23T13:03:19.515Z,24.20
2022-09-23T13:06:39.399Z,24.22
2022-09-23T13:09:41.646Z,26.11
2022-09-23T13:12:43.577Z,27.44
2022-09-23T13:15:45.957Z,24.89
2022-09-23T13:18:50.132Z,24.04
2022-09-23T13:21:59.897Z,24.75
2022-09-23T13:25:01.739Z,23.22
2022-09-23T13:28:04.011Z,22.18
2022-09-23T13:31:06.480Z,22.25
2022-09-23T13:34:08.328Z,20.47
2022-09-23T13:37:23.470Z,21.86
2022-09-23T13:40:26.738Z,20.94
2022-09-23T13:43:31.830Z,19.67
2022-09-23T13:46:44.101Z,20.05
2022-09-23T13:49:48.099Z,19.92
2022-09-23T13:53:14.294Z,19.18
2022-09-23T13:56:16.102Z,19.35
2022-09-23T13:59:27.969Z,19.21
2022-09-23T14:02:29.898Z,20.29
2022-09-23T14:05:33.517Z,19.57
2022-09-23T14:08:35.798Z,19.09
2022-09-23T14:11:37.773Z,20.10
2022-09-23T14:14:40.429Z,19.98
2022-09-23T14:17:45.737Z,20.94
2022-09-23T14:20:48.251Z,20.80
2022-09-23T14:23:50.054Z,20.37
2022-09-23T14:26:55.888Z,20.89
2022-09-23T14:29:57.787Z,20.12
2022-09-23T14:33:00.086Z,20.12
2022-09-23T14:36:06.689Z,19.28
2022-09-23T14:39:09.479Z,19.45
2022-09-23T14:42:12.450Z,19.70
2022-09-23T14:45:15.935Z,19.64
2022-09-23T14:48:19.321Z,20.80
2022-09-23T14:51:21.202Z,19.17
2022-09-23T14:54:36.462Z,19.43
2022-09-23T14:57:38.586Z,19.86
2022-09-23T15:00:40.400Z,20.04
2022-09-23T15:03:48.303Z,19.61
2022-09-23T15:06:54.288Z,20.07
2022-09-23T15:09:56.096Z,20.81
2022-09-23T15:13:24.203Z,20.52
2022-09-23T15:16:27.004Z,20.37
2022-09-23T15:19:29.006Z,19.14
2022-09-23T15:22:30.876Z,20.02
2022-09-23T15:25:40.152Z,19.26
2022-09-23T15:28:42.520Z,19.26
2022-09-23T15:31:44.397Z,20.40
2022-09-23T15:34:48.306Z,19.12
2022-09-23T15:37:50.368Z,20.11
2022-09-23T15:40:52.319Z,20.62
2022-09-23T15:43:56.390Z,19.51
2022-09-23T15:47:01.203Z,20.49
2022-09-23T15:50:03.203Z,20.14
2022-09-23T15:53:06.069Z,19.13
2022-09-23T15:56:07.859Z,19.47
2022-09-23T15:59:10.136Z,19.78
2022-09-23T16:02:18.114Z,19.51
2022-09-23T16:05:25.053Z,19.66
2022-09-23T16:08:27.358Z,18.59
2022-09-23T16:11:31.781Z,18.44
2022-09-23T16:14:33.681Z,18.49
2022-09-23T16:17:37.687Z,18.40
2022-09-23T16:20:41.926Z,19.31
2022-09-23T16:23:47.243Z,19.59
2022-09-23T16:26:49.075Z,19.90
2022-09-23T16:29:50.914Z,19.03
2022-09-23T16:32:52.917Z,19.56
2022-09-23T16:35:55.022Z,20.02
2022-09-23T16:38:57.170Z,18.69
2022-09-23T16:41:59.041Z,18.86
2022-09-23T16:45:00.906Z,18.26
2022-09-23T16:48:02.835Z,18.48
2022-09-23T16:51:04.971Z,18.76
2022-09-23T16:54:10.362Z,18.62
2022-09-23T16:57:13.276Z,17.93
2022-09-23T17:00:33.871Z,19.03
2022-09-23T17:03:41.670Z,18.24
2022-09-23T17:06:49.077Z,18.03
2022-09-23T17:09:50.979Z,18.27
2022-09-23T17:12:54.552Z,19.06
2022-09-23T17:15:56.522Z,17.82
2022-09-23T17:18:58.589Z,19.00
2022-09-23T17:22:00.435Z,19.31
2022-09-23T17:25:03.785Z,19.10
2022-09-23T17:28:05.583Z,18.99
2022-09-23T17:31:07.613Z,19.07
2022-09-23T17:34:09.622Z,18.01
2022-09-23T17:37:11.445Z,18.17
2022-09-23T17:40:13.727Z,18.51
2022-09-23T17:43:15.916Z,18.50
2022-09-23T17:46:20.793Z,18.94
2022-09-23T17:49:24.185Z,18.72
2022-09-23T17:52:26.062Z,18.73
2022-09-23T17:55:27.939Z,18.51
2022-09-23T17:58:30.899Z,18.39
2022-09-23T18:01:32.765Z,17.93
2022-09-23T18:04:34.615Z,17.97
2022-09-23T18:07:36.436Z,18.18
2022-09-23T18:10:38.306Z,18.26
2022-09-23T18:13:40.125Z,18.21
2022-09-23T18:16:42.693Z,17.74
2022-09-23T18:19:49.091Z,17.57
2022-09-23T18:22:50.916Z,17.50
2022-09-23T18:25:52.721Z,17.52
2022-09-23T18:28:57.217Z,17.61
2022-09-23T18:31:59.424Z,17.29
2022-09-23T18:35:01.367Z,17.32
2022-09-23T18:38:03.267Z,17.64
2022-09-23T18:41:05.256Z,17.65
2022-09-23T18:44:07.271Z,17.16
2022-09-23T18:47:29.077Z,16.53
2022-09-23T18:50:40.278Z,17.07
2022-09-23T18:53:42.876Z,16.19
2022-09-23T18:56:44.751Z,16.30
2022-09-23T18:59:47.474Z,16.34
2022-09-23T19:02:49.271Z,16.47
2022-09-23T19:05:51.364Z,16.04
2022-09-23T19:08:53.724Z,16.34
2022-09-23T19:11:55.661Z,15.69
2022-09-23T19:14:57.492Z,16.00
2022-09-23T19:17:59.322Z,16.04
2022-09-23T19:21:04.914Z,15.48
2022-09-23T19:24:08.966Z,15.24
2022-09-23T19:27:10.828Z,15.12
2022-09-23T19:30:13.517Z,15.19
2022-09-23T19:33:15.437Z,15.78
2022-09-23T19:36:17.248Z,15.95
2022-09-23T19:39:23.351Z,16.11
2022-09-23T19:42:27.634Z,16.12
2022-09-23T19:45:30.181Z,15.69
2022-09-23T19:48:32.013Z,15.87
2022-09-23T19:51:34.449Z,15.23
2022-09-23T19:54:36.297Z,15.24
2022-09-23T19:57:38.132Z,15.09
2022-09-23T20:00:40.206Z,15.13
2022-09-23T20:03:45.313Z,15.50
2022-09-23T20:06:49.683Z,15.25
2022-09-23T20:09:51.588Z,14.48
2022-09-23T20:12:53.601Z,14.92
2022-09-23T20:15:55.481Z,14.76
2022-09-23T20:18:57.541Z,14.75
2022-09-23T20:22:18.101Z,14.05
2022-09-23T20:25:19.899Z,13.81
2022-09-23T20:28:22.368Z,14.34
2022-09-23T20:31:25.103Z,14.92
2022-09-23T20:34:29.876Z,14.86
2022-09-23T20:37:33.014Z,15.04
2022-09-23T20:40:35.537Z,14.89
2022-09-23T20:43:37.400Z,15.02
2022-09-23T20:46:41.880Z,15.03
2022-09-23T20:49:46.219Z,15.05
2022-09-23T20:52:48.026Z,14.96
2022-09-23T20:55:50.453Z,15.16
2022-09-23T20:58:54.062Z,14.44
2022-09-23T21:01:58.212Z,14.44
2022-09-23T21:05:00.304Z,14.77
2022-09-23T21:08:03.237Z,14.59
2022-09-23T21:11:06.156Z,14.83
2022-09-23T21:14:08.223Z,14.50
2022-09-23T21:17:10.161Z,13.75
2022-09-23T21:20:12.020Z,12.64
2022-09-23T21:23:13.798Z,13.19
2022-09-23T21:26:18.634Z,13.64
2022-09-23T21:29:20.467Z,13.29
2022-09-23T21:32:22.876Z,13.71
2022-09-23T21:35:24.667Z,13.48
2022-09-23T21:38:26.507Z,13.28
2022-09-23T21:41:28.443Z,13.30
2022-09-23T21:44:30.246Z,13.39
2022-09-23T21:47:32.455Z,13.60
2022-09-23T21:50:37.175Z,12.89
2022-09-23T21:53:39.635Z,12.86
2022-09-23T21:56:41.480Z,12.85
2022-09-23T21:59:43.301Z,13.65
2022-09-23T22:02:45.081Z,13.63
2022-09-23T22:05:46.899Z,13.05
2022-09-23T22:08:49.708Z,12.80
2022-09-23T22:12:11.650Z,12.89
2022-09-23T22:15:13.518Z,13.32
2022-09-23T22:18:15.488Z,12.79
2022-09-23T22:21:17.379Z,12.80
2022-09-23T22:24:19.485Z,13.26
2022-09-23T22:27:21.351Z,13.25
2022-09-23T22:30:41.899Z,12.05
2022-09-23T22:33:44.071Z,12.08
2022-09-23T22:36:46.378Z,12.76
2022-09-23T22:39:48.284Z,13.46
2022-09-23T22:42:50.104Z,13.51
2022-09-23T22:45:52.115Z,13.44
2022-09-23T22:48:53.971Z,13.15
2022-09-23T22:51:55.762Z,13.01
2022-09-23T22:54:57.579Z,13.19
2022-09-23T22:58:15.280Z,13.15
2022-09-23T23:01:21.191Z,13.21
2022-09-23T23:04:23.091Z,13.01
2022-09-23T23:07:25.011Z,12.70
2022-09-23T23:10:27.274Z,12.90
2022-09-23T23:13:34.003Z,13.10
2022-09-23T23:16:36.164Z,12.99
2022-09-23T23:19:38.089Z,12.89
2022-09-23T23:22:39.902Z,12.65
2022-09-23T23:25:41.689Z,12.60
2022-09-23T23:28:44.534Z,12.64
2022-09-23T23:31:46.456Z,12.04
2022-09-23T23:34:48.281Z,12.21
2022-09-23T23:37:50.078Z,12.42
2022-09-23T23:40:52.692Z,12.50
2022-09-23T23:43:55.340Z,12.33
2022-09-23T23:46:57.186Z,12.20
2022-09-23T23:49:59.148Z,12.39
2022-09-23T23:53:00.991Z,12.15
2022-09-23T23:56:06.814Z,11.58
2022-09-23T23:59:08.613Z,11.54
